sensor_id;sensor_type;location;lat;lon;timestamp;P1;durP1;ratioP1;P2;durP2;ratioP2
36449;SDS011;22475;51.390;7.180;2023-10-13T00:02:00;4.70;;;3.10;;
36449;SDS011;22475;51.390;7.180;2023-10-13T00:04:29;2.83;;;2.63;;
36449;SDS011;22475;51.390;7.180;2023-10-13T00:06:58;2.47;;;2.28;;
36449;SDS011;22475;51.390;7.180;2023-10-13T00:09:24;3.10;;;2.90;;
36449;SDS011;22475;51.390;7.180;2023-10-13T00:11:59;4.53;;;3.83;;
36449;SDS011;22475;51.390;7.180;2023-10-13T00:14:29;3.58;;;2.80;;
36449;SDS011;22475;51.390;7.180;2023-10-13T00:16:58;6.07;;;3.53;;
36449;SDS011;22475;51.390;7.180;2023-10-13T00:19:29;4.82;;;3.42;;
36449;SDS011;22475;51.390;7.180;2023-10-13T00:22:03;3.40;;;2.67;;
36449;SDS011;22475;51.390;7.180;2023-10-13T00:24:35;3.58;;;3.22;;
36449;SDS011;22475;51.390;7.180;2023-10-13T00:27:09;3.70;;;3.38;;
36449;SDS011;22475;51.390;7.180;2023-10-13T00:29:52;3.58;;;3.08;;
36449;SDS011;22475;51.390;7.180;2023-10-13T00:32:40;4.00;;;3.63;;
36449;SDS011;22475;51.390;7.180;2023-10-13T00:35:08;4.40;;;2.45;;
36449;SDS011;22475;51.390;7.180;2023-10-13T00:37:36;6.28;;;4.47;;
36449;SDS011;22475;51.390;7.180;2023-10-13T00:40:09;2.60;;;2.40;;
36449;SDS011;22475;51.390;7.180;2023-10-13T00:42:59;4.30;;;3.35;;
36449;SDS011;22475;51.390;7.180;2023-10-13T00:45:50;3.45;;;2.90;;
36449;SDS011;22475;51.390;7.180;2023-10-13T00:50:49;5.95;;;3.72;;
36449;SDS011;22475;51.390;7.180;2023-10-13T00:53:15;4.28;;;2.95;;
36449;SDS011;22475;51.390;7.180;2023-10-13T00:55:42;2.75;;;2.15;;
36449;SDS011;22475;51.390;7.180;2023-10-13T00:58:10;3.63;;;3.22;;
36449;SDS011;22475;51.390;7.180;2023-10-13T01:00:40;8.77;;;3.72;;
36449;SDS011;22475;51.390;7.180;2023-10-13T01:03:12;4.53;;;3.08;;
36449;SDS011;22475;51.390;7.180;2023-10-13T01:05:39;3.25;;;2.90;;
36449;SDS011;22475;51.390;7.180;2023-10-13T01:08:06;4.45;;;2.92;;
36449;SDS011;22475;51.390;7.180;2023-10-13T01:10:36;3.33;;;2.83;;
36449;SDS011;22475;51.390;7.180;2023-10-13T01:13:03;5.05;;;3.47;;
36449;SDS011;22475;51.390;7.180;2023-10-13T01:15:31;5.00;;;3.30;;
36449;SDS011;22475;51.390;7.180;2023-10-13T01:18:05;6.22;;;3.20;;
36449;SDS011;22475;51.390;7.180;2023-10-13T01:20:36;4.30;;;3.90;;
36449;SDS011;22475;51.390;7.180;2023-10-13T01:23:10;4.55;;;3.58;;
36449;SDS011;22475;51.390;7.180;2023-10-13T01:25:43;4.32;;;3.40;;
36449;SDS011;22475;51.390;7.180;2023-10-13T01:28:09;5.30;;;2.50;;
36449;SDS011;22475;51.390;7.180;2023-10-13T01:30:40;4.38;;;2.90;;
36449;SDS011;22475;51.390;7.180;2023-10-13T01:33:06;3.47;;;2.70;;
36449;SDS011;22475;51.390;7.180;2023-10-13T01:35:34;5.40;;;3.67;;
36449;SDS011;22475;51.390;7.180;2023-10-13T01:38:08;3.25;;;2.90;;
36449;SDS011;22475;51.390;7.180;2023-10-13T01:40:36;6.65;;;3.35;;
36449;SDS011;22475;51.390;7.180;2023-10-13T01:43:02;8.13;;;2.35;;
36449;SDS011;22475;51.390;7.180;2023-10-13T01:45:29;5.30;;;3.63;;
36449;SDS011;22475;51.390;7.180;2023-10-13T01:47:55;3.03;;;2.83;;
36449;SDS011;22475;51.390;7.180;2023-10-13T01:50:22;5.55;;;3.60;;
36449;SDS011;22475;51.390;7.180;2023-10-13T01:52:54;5.82;;;3.22;;
36449;SDS011;22475;51.390;7.180;2023-10-13T01:55:37;4.10;;;3.70;;
36449;SDS011;22475;51.390;7.180;2023-10-13T01:58:07;9.20;;;3.85;;
36449;SDS011;22475;51.390;7.180;2023-10-13T02:00:40;3.50;;;3.20;;
36449;SDS011;22475;51.390;7.180;2023-10-13T02:03:07;10.48;;;3.00;;
36449;SDS011;22475;51.390;7.180;2023-10-13T02:05:41;4.35;;;2.67;;
36449;SDS011;22475;51.390;7.180;2023-10-13T02:08:12;6.35;;;3.47;;
36449;SDS011;22475;51.390;7.180;2023-10-13T02:13:11;4.75;;;3.20;;
36449;SDS011;22475;51.390;7.180;2023-10-13T02:15:43;8.80;;;3.00;;
36449;SDS011;22475;51.390;7.180;2023-10-13T02:18:10;3.20;;;2.90;;
36449;SDS011;22475;51.390;7.180;2023-10-13T02:20:39;4.40;;;3.08;;
36449;SDS011;22475;51.390;7.180;2023-10-13T02:23:08;6.15;;;3.83;;
36449;SDS011;22475;51.390;7.180;2023-10-13T02:25:36;3.10;;;2.90;;
36449;SDS011;22475;51.390;7.180;2023-10-13T02:28:09;9.30;;;3.10;;
36449;SDS011;22475;51.390;7.180;2023-10-13T02:30:39;7.80;;;3.75;;
36449;SDS011;22475;51.390;7.180;2023-10-13T02:33:10;3.55;;;3.28;;
36449;SDS011;22475;51.390;7.180;2023-10-13T02:35:38;5.78;;;3.45;;
36449;SDS011;22475;51.390;7.180;2023-10-13T02:38:11;4.10;;;3.25;;
36449;SDS011;22475;51.390;7.180;2023-10-13T02:40:39;6.78;;;3.35;;
36449;SDS011;22475;51.390;7.180;2023-10-13T02:43:04;4.10;;;3.22;;
36449;SDS011;22475;51.390;7.180;2023-10-13T02:45:33;4.40;;;2.67;;
36449;SDS011;22475;51.390;7.180;2023-10-13T02:48:01;3.28;;;2.97;;
36449;SDS011;22475;51.390;7.180;2023-10-13T02:50:42;5.00;;;3.20;;
36449;SDS011;22475;51.390;7.180;2023-10-13T02:53:09;3.20;;;2.58;;
36449;SDS011;22475;51.390;7.180;2023-10-13T02:55:39;4.03;;;3.17;;
36449;SDS011;22475;51.390;7.180;2023-10-13T02:58:17;5.53;;;3.90;;
36449;SDS011;22475;51.390;7.180;2023-10-13T03:00:46;9.75;;;3.90;;
36449;SDS011;22475;51.390;7.180;2023-10-13T03:03:12;4.38;;;3.22;;
36449;SDS011;22475;51.390;7.180;2023-10-13T03:05:43;5.70;;;3.55;;
36449;SDS011;22475;51.390;7.180;2023-10-13T03:08:10;4.75;;;3.40;;
36449;SDS011;22475;51.390;7.180;2023-10-13T03:10:50;6.70;;;3.83;;
36449;SDS011;22475;51.390;7.180;2023-10-13T03:13:19;3.78;;;3.33;;
36449;SDS011;22475;51.390;7.180;2023-10-13T03:15:47;8.75;;;3.50;;
36449;SDS011;22475;51.390;7.180;2023-10-13T03:18:13;7.13;;;3.80;;
36449;SDS011;22475;51.390;7.180;2023-10-13T03:20:43;7.32;;;3.40;;
36449;SDS011;22475;51.390;7.180;2023-10-13T03:23:09;6.50;;;3.22;;
36449;SDS011;22475;51.390;7.180;2023-10-13T03:25:36;5.72;;;3.03;;
36449;SDS011;22475;51.390;7.180;2023-10-13T03:28:07;5.65;;;2.97;;
36449;SDS011;22475;51.390;7.180;2023-10-13T03:30:37;3.88;;;3.40;;
36449;SDS011;22475;51.390;7.180;2023-10-13T03:33:08;9.47;;;4.00;;
36449;SDS011;22475;51.390;7.180;2023-10-13T03:35:37;5.20;;;2.80;;
36449;SDS011;22475;51.390;7.180;2023-10-13T03:38:05;6.45;;;3.50;;
36449;SDS011;22475;51.390;7.180;2023-10-13T03:40:39;9.05;;;4.43;;
36449;SDS011;22475;51.390;7.180;2023-10-13T03:43:06;5.45;;;2.53;;
36449;SDS011;22475;51.390;7.180;2023-10-13T03:45:35;5.00;;;3.67;;
36449;SDS011;22475;51.390;7.180;2023-10-13T03:48:04;4.15;;;3.47;;
36449;SDS011;22475;51.390;7.180;2023-10-13T03:53:11;3.97;;;2.88;;
36449;SDS011;22475;51.390;7.180;2023-10-13T03:55:38;2.85;;;2.65;;
36449;SDS011;22475;51.390;7.180;2023-10-13T03:58:05;4.03;;;3.05;;
36449;SDS011;22475;51.390;7.180;2023-10-13T04:00:35;4.25;;;3.10;;
36449;SDS011;22475;51.390;7.180;2023-10-13T04:03:03;4.47;;;3.42;;
36449;SDS011;22475;51.390;7.180;2023-10-13T04:05:34;3.60;;;3.30;;
36449;SDS011;22475;51.390;7.180;2023-10-13T04:08:10;3.75;;;3.08;;
36449;SDS011;22475;51.390;7.180;2023-10-13T04:10:54;5.63;;;2.75;;
36449;SDS011;22475;51.390;7.180;2023-10-13T04:13:40;5.30;;;3.72;;
36449;SDS011;22475;51.390;7.180;2023-10-13T04:16:23;5.25;;;3.05;;
36449;SDS011;22475;51.390;7.180;2023-10-13T04:19:03;3.50;;;3.15;;
36449;SDS011;22475;51.390;7.180;2023-10-13T04:21:35;2.55;;;2.35;;
36449;SDS011;22475;51.390;7.180;2023-10-13T04:24:07;4.95;;;2.97;;
36449;SDS011;22475;51.390;7.180;2023-10-13T04:26:47;3.28;;;2.97;;
36449;SDS011;22475;51.390;7.180;2023-10-13T04:29:44;4.90;;;3.17;;
36449;SDS011;22475;51.390;7.180;2023-10-13T04:32:20;3.30;;;3.00;;
36449;SDS011;22475;51.390;7.180;2023-10-13T04:34:53;3.80;;;3.05;;
36449;SDS011;22475;51.390;7.180;2023-10-13T04:37:24;4.03;;;3.33;;
36449;SDS011;22475;51.390;7.180;2023-10-13T04:39:55;6.00;;;3.25;;
36449;SDS011;22475;51.390;7.180;2023-10-13T04:42:24;5.15;;;3.58;;
36449;SDS011;22475;51.390;7.180;2023-10-13T04:45:14;4.10;;;3.10;;
36449;SDS011;22475;51.390;7.180;2023-10-13T04:48:03;3.83;;;3.30;;
36449;SDS011;22475;51.390;7.180;2023-10-13T04:50:44;8.38;;;3.75;;
36449;SDS011;22475;51.390;7.180;2023-10-13T04:53:14;5.93;;;3.33;;
36449;SDS011;22475;51.390;7.180;2023-10-13T04:55:58;3.15;;;2.75;;
36449;SDS011;22475;51.390;7.180;2023-10-13T04:58:33;3.30;;;2.88;;
36449;SDS011;22475;51.390;7.180;2023-10-13T05:01:22;6.95;;;3.47;;
36449;SDS011;22475;51.390;7.180;2023-10-13T05:04:11;11.18;;;3.47;;
36449;SDS011;22475;51.390;7.180;2023-10-13T05:06:47;5.63;;;3.53;;
36449;SDS011;22475;51.390;7.180;2023-10-13T05:09:33;7.28;;;3.70;;
36449;SDS011;22475;51.390;7.180;2023-10-13T05:12:17;3.90;;;3.17;;
36449;SDS011;22475;51.390;7.180;2023-10-13T05:15:01;3.45;;;3.00;;
36449;SDS011;22475;51.390;7.180;2023-10-13T05:17:46;6.18;;;3.42;;
36449;SDS011;22475;51.390;7.180;2023-10-13T05:20:30;6.53;;;3.45;;
36449;SDS011;22475;51.390;7.180;2023-10-13T05:23:14;3.63;;;3.17;;
36449;SDS011;22475;51.390;7.180;2023-10-13T05:26:01;4.93;;;4.22;;
36449;SDS011;22475;51.390;7.180;2023-10-13T05:28:45;4.18;;;3.28;;
36449;SDS011;22475;51.390;7.180;2023-10-13T05:31:29;9.45;;;3.75;;
36449;SDS011;22475;51.390;7.180;2023-10-13T05:34:14;8.18;;;3.47;;
36449;SDS011;22475;51.390;7.180;2023-10-13T05:36:58;11.63;;;3.47;;
36449;SDS011;22475;51.390;7.180;2023-10-13T05:39:42;3.97;;;3.22;;
36449;SDS011;22475;51.390;7.180;2023-10-13T05:42:28;4.40;;;3.95;;
36449;SDS011;22475;51.390;7.180;2023-10-13T05:45:12;4.30;;;3.20;;
36449;SDS011;22475;51.390;7.180;2023-10-13T05:48:05;4.40;;;3.05;;
36449;SDS011;22475;51.390;7.180;2023-10-13T05:53:43;4.63;;;3.20;;
36449;SDS011;22475;51.390;7.180;2023-10-13T05:56:27;6.00;;;3.40;;
36449;SDS011;22475;51.390;7.180;2023-10-13T05:59:13;3.92;;;3.22;;
36449;SDS011;22475;51.390;7.180;2023-10-13T06:01:57;6.18;;;3.03;;
36449;SDS011;22475;51.390;7.180;2023-10-13T06:04:41;5.10;;;2.75;;
36449;SDS011;22475;51.390;7.180;2023-10-13T06:07:40;5.22;;;3.42;;
36449;SDS011;22475;51.390;7.180;2023-10-13T06:10:24;6.75;;;3.58;;
36449;SDS011;22475;51.390;7.180;2023-10-13T06:13:09;4.18;;;2.25;;
36449;SDS011;22475;51.390;7.180;2023-10-13T06:15:54;6.75;;;2.80;;
36449;SDS011;22475;51.390;7.180;2023-10-13T06:18:38;3.90;;;3.10;;
36449;SDS011;22475;51.390;7.180;2023-10-13T06:21:23;11.82;;;3.78;;
36449;SDS011;22475;51.390;7.180;2023-10-13T06:24:07;5.63;;;3.35;;
36449;SDS011;22475;51.390;7.180;2023-10-13T06:26:51;7.57;;;3.28;;
36449;SDS011;22475;51.390;7.180;2023-10-13T06:29:35;8.25;;;3.08;;
36449;SDS011;22475;51.390;7.180;2023-10-13T06:32:04;6.43;;;2.40;;
36449;SDS011;22475;51.390;7.180;2023-10-13T06:34:35;6.78;;;2.88;;
36449;SDS011;22475;51.390;7.180;2023-10-13T06:37:07;3.13;;;2.80;;
36449;SDS011;22475;51.390;7.180;2023-10-13T06:39:47;3.67;;;2.72;;
36449;SDS011;22475;51.390;7.180;2023-10-13T06:42:14;5.45;;;3.22;;
36449;SDS011;22475;51.390;7.180;2023-10-13T06:44:41;6.22;;;2.88;;
36449;SDS011;22475;51.390;7.180;2023-10-13T06:47:12;4.35;;;3.10;;
36449;SDS011;22475;51.390;7.180;2023-10-13T06:49:39;4.63;;;2.38;;
36449;SDS011;22475;51.390;7.180;2023-10-13T06:52:08;3.15;;;2.25;;
36449;SDS011;22475;51.390;7.180;2023-10-13T06:54:35;9.23;;;2.97;;
36449;SDS011;22475;51.390;7.180;2023-10-13T06:57:03;7.88;;;3.38;;
36449;SDS011;22475;51.390;7.180;2023-10-13T06:59:32;12.43;;;3.40;;
36449;SDS011;22475;51.390;7.180;2023-10-13T07:02:01;5.65;;;2.33;;
36449;SDS011;22475;51.390;7.180;2023-10-13T07:04:31;7.75;;;3.25;;
36449;SDS011;22475;51.390;7.180;2023-10-13T07:06:58;4.97;;;3.00;;
36449;SDS011;22475;51.390;7.180;2023-10-13T07:09:26;5.82;;;3.33;;
36449;SDS011;22475;51.390;7.180;2023-10-13T07:12:14;10.13;;;2.70;;
36449;SDS011;22475;51.390;7.180;2023-10-13T07:14:47;7.28;;;3.15;;
36449;SDS011;22475;51.390;7.180;2023-10-13T07:17:25;6.88;;;2.72;;
36449;SDS011;22475;51.390;7.180;2023-10-13T07:19:54;5.38;;;3.03;;
36449;SDS011;22475;51.390;7.180;2023-10-13T07:22:30;9.07;;;3.10;;
36449;SDS011;22475;51.390;7.180;2023-10-13T07:25:05;14.60;;;3.28;;
36449;SDS011;22475;51.390;7.180;2023-10-13T07:27:32;4.88;;;3.53;;
36449;SDS011;22475;51.390;7.180;2023-10-13T07:30:00;6.00;;;3.15;;
36449;SDS011;22475;51.390;7.180;2023-10-13T07:32:38;7.00;;;3.47;;
36449;SDS011;22475;51.390;7.180;2023-10-13T07:35:11;6.28;;;3.55;;
36449;SDS011;22475;51.390;7.180;2023-10-13T07:37:41;4.18;;;2.97;;
36449;SDS011;22475;51.390;7.180;2023-10-13T07:40:07;9.38;;;3.50;;
36449;SDS011;22475;51.390;7.180;2023-10-13T07:42:47;2.63;;;2.40;;
36449;SDS011;22475;51.390;7.180;2023-10-13T07:45:14;7.00;;;2.55;;
36449;SDS011;22475;51.390;7.180;2023-10-13T07:47:49;7.13;;;3.15;;
36449;SDS011;22475;51.390;7.180;2023-10-13T07:50:17;9.70;;;3.63;;
36449;SDS011;22475;51.390;7.180;2023-10-13T07:52:50;9.00;;;2.97;;
36449;SDS011;22475;51.390;7.180;2023-10-13T07:55:24;7.38;;;3.42;;
36449;SDS011;22475;51.390;7.180;2023-10-13T07:57:50;9.50;;;3.15;;
36449;SDS011;22475;51.390;7.180;2023-10-13T08:00:20;6.20;;;3.47;;
36449;SDS011;22475;51.390;7.180;2023-10-13T08:03:11;3.67;;;2.65;;
36449;SDS011;22475;51.390;7.180;2023-10-13T08:05:58;4.70;;;3.55;;
36449;SDS011;22475;51.390;7.180;2023-10-13T08:08:30;6.10;;;3.35;;
36449;SDS011;22475;51.390;7.180;2023-10-13T08:11:02;6.75;;;3.58;;
36449;SDS011;22475;51.390;7.180;2023-10-13T08:13:35;11.68;;;3.88;;
36449;SDS011;22475;51.390;7.180;2023-10-13T08:16:02;8.38;;;3.00;;
36449;SDS011;22475;51.390;7.180;2023-10-13T08:18:33;16.38;;;3.72;;
36449;SDS011;22475;51.390;7.180;2023-10-13T08:21:02;5.90;;;3.33;;
36449;SDS011;22475;51.390;7.180;2023-10-13T08:23:31;6.10;;;3.33;;
36449;SDS011;22475;51.390;7.180;2023-10-13T08:26:23;4.10;;;2.75;;
36449;SDS011;22475;51.390;7.180;2023-10-13T08:29:17;7.43;;;3.50;;
36449;SDS011;22475;51.390;7.180;2023-10-13T08:32:01;3.80;;;2.88;;
36449;SDS011;22475;51.390;7.180;2023-10-13T08:34:40;12.18;;;2.60;;
36449;SDS011;22475;51.390;7.180;2023-10-13T08:37:35;5.22;;;2.60;;
36449;SDS011;22475;51.390;7.180;2023-10-13T08:40:24;9.38;;;3.50;;
36449;SDS011;22475;51.390;7.180;2023-10-13T08:43:10;10.55;;;3.25;;
36449;SDS011;22475;51.390;7.180;2023-10-13T08:45:38;6.50;;;3.10;;
36449;SDS011;22475;51.390;7.180;2023-10-13T08:48:24;4.20;;;2.72;;
36449;SDS011;22475;51.390;7.180;2023-10-13T08:51:00;6.82;;;3.22;;
36449;SDS011;22475;51.390;7.180;2023-10-13T08:53:38;10.07;;;3.22;;
36449;SDS011;22475;51.390;7.180;2023-10-13T08:56:17;4.25;;;3.20;;
36449;SDS011;22475;51.390;7.180;2023-10-13T08:58:58;6.47;;;2.83;;
36449;SDS011;22475;51.390;7.180;2023-10-13T09:01:31;16.25;;;3.88;;
36449;SDS011;22475;51.390;7.180;2023-10-13T09:04:10;5.65;;;2.90;;
36449;SDS011;22475;51.390;7.180;2023-10-13T09:06:47;11.60;;;2.90;;
36449;SDS011;22475;51.390;7.180;2023-10-13T09:09:29;9.48;;;2.90;;
36449;SDS011;22475;51.390;7.180;2023-10-13T09:12:10;7.88;;;3.40;;
36449;SDS011;22475;51.390;7.180;2023-10-13T09:14:39;11.82;;;3.38;;
36449;SDS011;22475;51.390;7.180;2023-10-13T09:19:47;7.82;;;3.05;;
36449;SDS011;22475;51.390;7.180;2023-10-13T09:22:20;5.53;;;3.20;;
36449;SDS011;22475;51.390;7.180;2023-10-13T09:25:01;14.75;;;3.65;;
36449;SDS011;22475;51.390;7.180;2023-10-13T09:27:30;5.18;;;2.92;;
36449;SDS011;22475;51.390;7.180;2023-10-13T09:29:58;10.68;;;3.78;;
36449;SDS011;22475;51.390;7.180;2023-10-13T09:32:35;11.60;;;3.53;;
36449;SDS011;22475;51.390;7.180;2023-10-13T09:35:10;8.63;;;4.72;;
36449;SDS011;22475;51.390;7.180;2023-10-13T09:37:41;3.83;;;3.22;;
36449;SDS011;22475;51.390;7.180;2023-10-13T09:40:12;8.55;;;4.05;;
36449;SDS011;22475;51.390;7.180;2023-10-13T09:42:50;6.25;;;2.88;;
36449;SDS011;22475;51.390;7.180;2023-10-13T09:45:20;11.15;;;2.95;;
36449;SDS011;22475;51.390;7.180;2023-10-13T09:47:52;6.97;;;4.18;;
36449;SDS011;22475;51.390;7.180;2023-10-13T09:50:22;11.57;;;3.67;;
36449;SDS011;22475;51.390;7.180;2023-10-13T09:52:52;8.45;;;3.75;;
36449;SDS011;22475;51.390;7.180;2023-10-13T09:55:26;8.50;;;4.20;;
36449;SDS011;22475;51.390;7.180;2023-10-13T09:57:57;7.93;;;3.42;;
36449;SDS011;22475;51.390;7.180;2023-10-13T10:00:35;11.50;;;3.75;;
36449;SDS011;22475;51.390;7.180;2023-10-13T10:03:11;6.70;;;3.83;;
36449;SDS011;22475;51.390;7.180;2023-10-13T10:05:55;9.65;;;3.50;;
36449;SDS011;22475;51.390;7.180;2023-10-13T10:08:28;9.07;;;3.83;;
36449;SDS011;22475;51.390;7.180;2023-10-13T10:14:03;12.05;;;3.63;;
36449;SDS011;22475;51.390;7.180;2023-10-13T10:16:39;8.55;;;3.72;;
36449;SDS011;22475;51.390;7.180;2023-10-13T10:19:17;6.53;;;4.00;;
36449;SDS011;22475;51.390;7.180;2023-10-13T10:21:44;10.73;;;4.13;;
36449;SDS011;22475;51.390;7.180;2023-10-13T10:24:13;7.50;;;3.70;;
36449;SDS011;22475;51.390;7.180;2023-10-13T10:26:51;7.00;;;3.13;;
36449;SDS011;22475;51.390;7.180;2023-10-13T10:29:20;10.70;;;4.30;;
36449;SDS011;22475;51.390;7.180;2023-10-13T10:31:47;13.65;;;4.28;;
36449;SDS011;22475;51.390;7.180;2023-10-13T10:34:14;8.77;;;3.38;;
36449;SDS011;22475;51.390;7.180;2023-10-13T10:36:45;8.27;;;4.38;;
36449;SDS011;22475;51.390;7.180;2023-10-13T10:39:13;8.57;;;4.40;;
36449;SDS011;22475;51.390;7.180;2023-10-13T10:41:42;8.98;;;3.85;;
36449;SDS011;22475;51.390;7.180;2023-10-13T10:44:16;5.93;;;3.67;;
36449;SDS011;22475;51.390;7.180;2023-10-13T10:46:52;8.20;;;3.88;;
36449;SDS011;22475;51.390;7.180;2023-10-13T10:49:23;10.60;;;4.63;;
36449;SDS011;22475;51.390;7.180;2023-10-13T10:51:57;7.90;;;4.03;;
36449;SDS011;22475;51.390;7.180;2023-10-13T10:54:26;4.57;;;4.18;;
36449;SDS011;22475;51.390;7.180;2023-10-13T10:56:56;5.03;;;4.22;;
36449;SDS011;22475;51.390;7.180;2023-10-13T10:59:35;7.03;;;4.28;;
36449;SDS011;22475;51.390;7.180;2023-10-13T11:02:04;8.30;;;4.45;;
36449;SDS011;22475;51.390;7.180;2023-10-13T11:04:34;14.57;;;4.50;;
36449;SDS011;22475;51.390;7.180;2023-10-13T11:07:05;12.25;;;4.82;;
36449;SDS011;22475;51.390;7.180;2023-10-13T11:09:34;5.70;;;4.35;;
36449;SDS011;22475;51.390;7.180;2023-10-13T11:12:11;10.43;;;5.50;;
36449;SDS011;22475;51.390;7.180;2023-10-13T11:14:42;8.77;;;4.95;;
36449;SDS011;22475;51.390;7.180;2023-10-13T11:17:19;9.52;;;4.20;;
36449;SDS011;22475;51.390;7.180;2023-10-13T11:19:51;7.60;;;4.45;;
36449;SDS011;22475;51.390;7.180;2023-10-13T11:22:19;6.85;;;4.40;;
36449;SDS011;22475;51.390;7.180;2023-10-13T11:24:57;8.00;;;4.78;;
36449;SDS011;22475;51.390;7.180;2023-10-13T11:27:28;14.25;;;5.57;;
36449;SDS011;22475;51.390;7.180;2023-10-13T11:30:09;13.57;;;4.95;;
36449;SDS011;22475;51.390;7.180;2023-10-13T11:32:41;7.20;;;4.68;;
36449;SDS011;22475;51.390;7.180;2023-10-13T11:35:08;10.35;;;5.10;;
36449;SDS011;22475;51.390;7.180;2023-10-13T11:37:45;13.05;;;5.63;;
36449;SDS011;22475;51.390;7.180;2023-10-13T11:40:21;9.23;;;4.85;;
36449;SDS011;22475;51.390;7.180;2023-10-13T11:43:08;18.10;;;4.47;;
36449;SDS011;22475;51.390;7.180;2023-10-13T11:45:39;10.63;;;4.70;;
36449;SDS011;22475;51.390;7.180;2023-10-13T11:48:20;9.90;;;5.43;;
36449;SDS011;22475;51.390;7.180;2023-10-13T11:50:59;8.80;;;5.65;;
36449;SDS011;22475;51.390;7.180;2023-10-13T11:53:31;6.68;;;5.53;;
36449;SDS011;22475;51.390;7.180;2023-10-13T11:55:58;8.10;;;4.28;;
36449;SDS011;22475;51.390;7.180;2023-10-13T11:58:24;10.25;;;4.93;;
36449;SDS011;22475;51.390;7.180;2023-10-13T12:00:53;6.45;;;4.72;;
36449;SDS011;22475;51.390;7.180;2023-10-13T12:03:34;15.13;;;5.20;;
36449;SDS011;22475;51.390;7.180;2023-10-13T12:06:19;11.50;;;4.80;;
36449;SDS011;22475;51.390;7.180;2023-10-13T12:08:57;8.30;;;4.70;;
36449;SDS011;22475;51.390;7.180;2023-10-13T12:11:37;19.75;;;5.53;;
36449;SDS011;22475;51.390;7.180;2023-10-13T12:14:06;6.97;;;4.60;;
36449;SDS011;22475;51.390;7.180;2023-10-13T12:19:17;12.05;;;5.03;;
36449;SDS011;22475;51.390;7.180;2023-10-13T12:21:48;8.15;;;4.00;;
36449;SDS011;22475;51.390;7.180;2023-10-13T12:24:19;11.82;;;4.65;;
36449;SDS011;22475;51.390;7.180;2023-10-13T12:26:56;5.38;;;4.47;;
36449;SDS011;22475;51.390;7.180;2023-10-13T12:29:23;7.10;;;5.13;;
36449;SDS011;22475;51.390;7.180;2023-10-13T12:31:53;7.13;;;5.10;;
36449;SDS011;22475;51.390;7.180;2023-10-13T12:34:34;9.13;;;5.32;;
36449;SDS011;22475;51.390;7.180;2023-10-13T12:37:22;5.80;;;5.10;;
36449;SDS011;22475;51.390;7.180;2023-10-13T12:40:19;9.88;;;5.13;;
36449;SDS011;22475;51.390;7.180;2023-10-13T12:43:03;8.77;;;4.85;;
36449;SDS011;22475;51.390;7.180;2023-10-13T12:45:45;9.57;;;4.35;;
36449;SDS011;22475;51.390;7.180;2023-10-13T12:48:30;10.57;;;4.97;;
36449;SDS011;22475;51.390;7.180;2023-10-13T12:51:15;8.73;;;4.93;;
36449;SDS011;22475;51.390;7.180;2023-10-13T12:54:05;6.40;;;4.78;;
36449;SDS011;22475;51.390;7.180;2023-10-13T12:56:41;9.05;;;5.22;;
36449;SDS011;22475;51.390;7.180;2023-10-13T12:59:08;10.38;;;5.38;;
36449;SDS011;22475;51.390;7.180;2023-10-13T13:01:38;11.85;;;4.95;;
36449;SDS011;22475;51.390;7.180;2023-10-13T13:04:07;7.53;;;4.43;;
36449;SDS011;22475;51.390;7.180;2023-10-13T13:06:38;8.25;;;5.15;;
36449;SDS011;22475;51.390;7.180;2023-10-13T13:09:06;10.35;;;4.55;;
36449;SDS011;22475;51.390;7.180;2023-10-13T13:11:34;9.63;;;4.90;;
36449;SDS011;22475;51.390;7.180;2023-10-13T13:14:06;9.48;;;5.00;;
36449;SDS011;22475;51.390;7.180;2023-10-13T13:16:34;14.45;;;5.63;;
36449;SDS011;22475;51.390;7.180;2023-10-13T13:19:01;10.43;;;4.78;;
36449;SDS011;22475;51.390;7.180;2023-10-13T13:21:34;6.45;;;4.47;;
36449;SDS011;22475;51.390;7.180;2023-10-13T13:24:02;14.95;;;5.13;;
36449;SDS011;22475;51.390;7.180;2023-10-13T13:26:30;9.07;;;5.25;;
36449;SDS011;22475;51.390;7.180;2023-10-13T13:28:57;10.48;;;5.15;;
36449;SDS011;22475;51.390;7.180;2023-10-13T13:31:25;11.43;;;4.82;;
36449;SDS011;22475;51.390;7.180;2023-10-13T13:33:54;9.13;;;5.22;;
36449;SDS011;22475;51.390;7.180;2023-10-13T13:36:21;12.00;;;4.68;;
36449;SDS011;22475;51.390;7.180;2023-10-13T13:38:48;15.10;;;6.63;;
36449;SDS011;22475;51.390;7.180;2023-10-13T13:41:16;6.13;;;4.68;;
36449;SDS011;22475;51.390;7.180;2023-10-13T13:43:43;12.38;;;5.63;;
36449;SDS011;22475;51.390;7.180;2023-10-13T13:46:20;7.10;;;4.68;;
36449;SDS011;22475;51.390;7.180;2023-10-13T13:48:51;10.15;;;4.00;;
36449;SDS011;22475;51.390;7.180;2023-10-13T13:51:23;13.68;;;5.05;;
36449;SDS011;22475;51.390;7.180;2023-10-13T13:53:53;11.95;;;4.50;;
36449;SDS011;22475;51.390;7.180;2023-10-13T13:56:21;6.47;;;4.05;;
36449;SDS011;22475;51.390;7.180;2023-10-13T13:58:50;5.35;;;4.15;;
36449;SDS011;22475;51.390;7.180;2023-10-13T14:01:18;8.75;;;4.32;;
36449;SDS011;22475;51.390;7.180;2023-10-13T14:03:47;8.98;;;4.50;;
36449;SDS011;22475;51.390;7.180;2023-10-13T14:06:17;15.35;;;4.68;;
36449;SDS011;22475;51.390;7.180;2023-10-13T14:08:46;15.65;;;5.07;;
36449;SDS011;22475;51.390;7.180;2023-10-13T14:11:16;16.20;;;5.00;;
36449;SDS011;22475;51.390;7.180;2023-10-13T14:14:09;13.50;;;4.65;;
36449;SDS011;22475;51.390;7.180;2023-10-13T14:16:39;24.00;;;4.50;;
36449;SDS011;22475;51.390;7.180;2023-10-13T14:19:10;11.90;;;4.80;;
36449;SDS011;22475;51.390;7.180;2023-10-13T14:21:39;19.10;;;3.88;;
36449;SDS011;22475;51.390;7.180;2023-10-13T14:24:07;13.30;;;4.73;;
36449;SDS011;22475;51.390;7.180;2023-10-13T14:26:39;10.60;;;4.78;;
36449;SDS011;22475;51.390;7.180;2023-10-13T14:29:08;13.10;;;4.55;;
36449;SDS011;22475;51.390;7.180;2023-10-13T14:31:39;18.40;;;3.90;;
36449;SDS011;22475;51.390;7.180;2023-10-13T14:34:06;12.93;;;4.53;;
36449;SDS011;22475;51.390;7.180;2023-10-13T14:36:33;10.23;;;4.30;;
36449;SDS011;22475;51.390;7.180;2023-10-13T14:39:02;11.02;;;3.80;;
36449;SDS011;22475;51.390;7.180;2023-10-13T14:41:34;13.02;;;4.53;;
36449;SDS011;22475;51.390;7.180;2023-10-13T14:44:00;13.23;;;3.90;;
36449;SDS011;22475;51.390;7.180;2023-10-13T14:46:31;16.48;;;4.35;;
36449;SDS011;22475;51.390;7.180;2023-10-13T14:49:00;19.02;;;6.32;;
36449;SDS011;22475;51.390;7.180;2023-10-13T14:51:27;13.55;;;3.90;;
36449;SDS011;22475;51.390;7.180;2023-10-13T14:53:54;16.63;;;4.53;;
36449;SDS011;22475;51.390;7.180;2023-10-13T14:56:25;12.52;;;4.38;;
36449;SDS011;22475;51.390;7.180;2023-10-13T14:58:53;13.07;;;5.15;;
36449;SDS011;22475;51.390;7.180;2023-10-13T15:01:21;11.45;;;4.95;;
36449;SDS011;22475;51.390;7.180;2023-10-13T15:03:50;16.13;;;4.97;;
36449;SDS011;22475;51.390;7.180;2023-10-13T15:06:20;18.35;;;4.03;;
36449;SDS011;22475;51.390;7.180;2023-10-13T15:08:50;19.73;;;4.78;;
36449;SDS011;22475;51.390;7.180;2023-10-13T15:11:19;10.60;;;5.17;;
36449;SDS011;22475;51.390;7.180;2023-10-13T15:13:47;8.55;;;4.75;;
36449;SDS011;22475;51.390;7.180;2023-10-13T15:16:15;14.70;;;4.13;;
36449;SDS011;22475;51.390;7.180;2023-10-13T15:18:43;8.82;;;4.60;;
36449;SDS011;22475;51.390;7.180;2023-10-13T15:21:11;16.48;;;4.70;;
36449;SDS011;22475;51.390;7.180;2023-10-13T15:23:38;14.40;;;4.57;;
36449;SDS011;22475;51.390;7.180;2023-10-13T15:26:08;21.33;;;4.80;;
36449;SDS011;22475;51.390;7.180;2023-10-13T15:28:35;12.27;;;5.20;;
36449;SDS011;22475;51.390;7.180;2023-10-13T15:31:11;16.50;;;5.32;;
36449;SDS011;22475;51.390;7.180;2023-10-13T15:33:49;19.60;;;4.57;;
36449;SDS011;22475;51.390;7.180;2023-10-13T15:36:19;18.98;;;5.68;;
36449;SDS011;22475;51.390;7.180;2023-10-13T15:38:46;11.55;;;4.03;;
36449;SDS011;22475;51.390;7.180;2023-10-13T15:41:20;11.98;;;4.75;;